Time,TemperatureF,DewpointF,PressureIn,WindDirection,WindDirectionDegrees,WindSpeedMPH,WindSpeedGustMPH,Humidity,HourlyPrecipIn,Conditions,Clouds,dailyrainin,SoftwareType,DateUTC
2013-02-16 00:00:00,31.9,28.2,30.24,WNW,285,2.0,6.0,86,0.00,,,0.00,LWC V2.00 B2112,2013-02-16 08:00:00,
2013-02-16 00:05:00,31.8,27.8,30.24,WNW,285,0.0,4.0,85,0.00,,,0.00,LWC V2.00 B2112,2013-02-16 08:05:00,
2013-02-16 00:10:00,31.3,27.3,30.24,WNW,285,0.0,0.0,85,0.00,,,0.00,LWC V2.00 B2112,2013-02-16 08:10:00,
2013-02-16 00:15:00,31.3,28.2,30.23,WNW,285,6.0,6.0,88,0.00,,,0.00,LWC V2.00 B2112,2013-02-16 08:15:00,
2013-02-16 00:20:00,31.2,28.1,30.23,WNW,299,6.0,7.0,88,0.00,,,0.00,LWC V2.00 B2112,2013-02-16 08:20:00,
2013-02-16 00:25:00,31.5,28.4,30.23,NW,304,6.0,8.0,88,0.00,,,0.00,LWC V2.00 B2112,2013-02-16 08:25:00,
2013-02-16 00:30:00,31.6,28.2,30.23,NW,304,0.0,4.0,87,0.00,,,0.00,LWC V2.00 B2112,2013-02-16 08:30:00,
2013-02-16 00:35:00,31.8,28.4,30.23,NW,304,2.0,6.0,87,0.00,,,0.00,LWC V2.00 B2112,2013-02-16 08:35:00,
2013-02-16 00:40:00,31.8,28.4,30.23,WNW,302,4.0,6.0,87,0.00,,,0.00,LWC V2.00 B2112,2013-02-16 08:40:00,
2013-02-16 00:45:00,32.1,28.7,30.22,WNW,301,2.0,4.0,87,0.00,,,0.00,LWC V2.00 B2112,2013-02-16 08:45:00,
2013-02-16 00:50:00,32.4,28.4,30.22,WNW,301,0.0,2.0,85,0.00,,,0.00,LWC V2.00 B2112,2013-02-16 08:50:00,
2013-02-16 00:55:00,31.9,27.9,30.22,WNW,301,0.0,0.0,85,0.00,,,0.00,LWC V2.00 B2112,2013-02-16 08:55:00,
2013-02-16 01:00:00,31.3,27.9,30.22,WNW,301,0.0,0.0,87,0.00,,,0.00,LWC V2.00 B2112,2013-02-16 09:00:00,
2013-02-16 01:05:00,31.3,28.2,30.22,WNW,301,4.0,4.0,88,0.00,,,0.00,LWC V2.00 B2112,2013-02-16 09:05:00,
2013-02-16 01:10:00,31.3,27.9,30.22,WNW,301,1.0,4.0,87,0.00,,,0.00,LWC V2.00 B2112,2013-02-16 09:10:00,
2013-02-16 01:15:00,31.0,27.6,30.21,WNW,301,2.0,2.0,87,0.00,,,0.00,LWC V2.00 B2112,2013-02-16 09:15:00,
2013-02-16 01:20:00,30.6,27.5,30.21,WNW,301,1.0,6.0,88,0.00,,,0.00,LWC V2.00 B2112,2013-02-16 09:20:00,
2013-02-16 01:25:00,30.4,27.6,30.21,WNW,301,2.0,4.0,89,0.00,,,0.00,LWC V2.00 B2112,2013-02-16 09:25:00,
2013-02-16 01:30:00,30.9,27.8,30.20,WNW,299,6.0,7.0,88,0.00,,,0.00,LWC V2.00 B2112,2013-02-16 09:30:00,
2013-02-16 01:35:00,31.3,28.2,30.20,WNW,292,0.0,4.0,88,0.00,,,0.00,LWC V2.00 B2112,2013-02-16 09:35:00,
2013-02-16 01:40:00,30.9,27.5,30.20,WNW,292,0.0,0.0,87,0.00,,,0.00,LWC V2.00 B2112,2013-02-16 09:40:00,
2013-02-16 01:45:00,30.7,27.6,30.20,WNW,292,0.0,0.0,88,0.00,,,0.00,LWC V2.00 B2112,2013-02-16 09:45:00,
2013-02-16 01:50:00,30.6,27.8,30.20,WNW,292,2.0,4.0,89,0.00,,,0.00,LWC V2.00 B2112,2013-02-16 09:50:00,
2013-02-16 01:55:00,30.7,27.9,30.20,WNW,292,0.0,4.0,89,0.00,,,0.00,LWC V2.00 B2112,2013-02-16 09:55:00,
2013-02-16 02:00:00,30.6,27.8,30.20,WNW,292,0.0,0.0,89,0.00,,,0.00,LWC V2.00 B2112,2013-02-16 10:00:00,
2013-02-16 02:05:00,30.3,27.5,30.20,WNW,292,0.0,0.0,89,0.00,,,0.00,LWC V2.00 B2112,2013-02-16 10:05:00,
2013-02-16 02:10:00,30.0,27.4,30.20,WNW,292,2.0,2.0,90,0.00,,,0.00,LWC V2.00 B2112,2013-02-16 10:10:00,
2013-02-16 02:15:00,30.3,27.7,30.19,WNW,291,1.0,6.0,90,0.00,,,0.00,LWC V2.00 B2112,2013-02-16 10:15:00,
2013-02-16 02:20:00,30.1,27.5,30.19,WNW,291,1.0,4.0,90,0.00,,,0.00,LWC V2.00 B2112,2013-02-16 10:20:00,
2013-02-16 02:25:00,30.0,27.4,30.19,WNW,291,2.0,2.0,90,0.00,,,0.00,LWC V2.00 B2112,2013-02-16 10:25:00,
2013-02-16 02:30:00,29.8,27.2,30.19,WNW,291,0.0,0.0,90,0.00,,,0.00,LWC V2.00 B2112,2013-02-16 10:30:00,
2013-02-16 02:35:00,29.7,27.1,30.19,WNW,291,0.0,0.0,90,0.00,,,0.00,LWC V2.00 B2112,2013-02-16 10:35:00,
2013-02-16 02:40:00,29.8,27.5,30.19,WNW,291,0.0,0.0,91,0.00,,,0.00,LWC V2.00 B2112,2013-02-16 10:40:00,
2013-02-16 02:45:00,29.7,27.4,30.18,WNW,291,0.0,2.0,91,0.00,,,0.00,LWC V2.00 B2112,2013-02-16 10:45:00,
2013-02-16 02:50:00,29.4,26.8,30.18,WNW,291,0.0,0.0,90,0.00,,,0.00,LWC V2.00 B2112,2013-02-16 10:50:00,
2013-02-16 02:55:00,29.3,27.0,30.18,WNW,291,0.0,0.0,91,0.00,,,0.00,LWC V2.00 B2112,2013-02-16 10:55:00,
2013-02-16 03:00:00,29.1,26.8,30.18,WNW,291,0.0,0.0,91,0.00,,,0.00,LWC V2.00 B2112,2013-02-16 11:00:00,
2013-02-16 03:05:00,29.1,27.1,30.18,WNW,291,0.0,0.0,92,0.00,,,0.00,LWC V2.00 B2112,2013-02-16 11:05:00,
2013-02-16 03:10:00,29.0,27.0,30.18,WNW,291,0.0,0.0,92,0.00,,,0.00,LWC V2.00 B2112,2013-02-16 11:10:00,
2013-02-16 03:15:00,28.8,26.8,30.18,WNW,291,0.0,0.0,92,0.00,,,0.00,LWC V2.00 B2112,2013-02-16 11:15:00,
2013-02-16 03:20:00,28.7,26.7,30.18,WNW,291,2.0,4.0,92,0.00,,,0.00,LWC V2.00 B2112,2013-02-16 11:20:00,
2013-02-16 03:25:00,29.0,27.2,30.18,WNW,291,4.0,6.0,93,0.00,,,0.00,LWC V2.00 B2112,2013-02-16 11:25:00,
2013-02-16 03:30:00,29.1,27.3,30.17,WNW,291,0.0,2.0,93,0.00,,,0.00,LWC V2.00 B2112,2013-02-16 11:30:00,
2013-02-16 03:35:00,29.0,26.4,30.17,WNW,291,0.0,0.0,90,0.00,,,0.00,LWC V2.00 B2112,2013-02-16 11:35:00,
2013-02-16 03:40:00,29.0,26.7,30.17,WNW,291,4.0,4.0,91,0.00,,,0.00,LWC V2.00 B2112,2013-02-16 11:40:00,
2013-02-16 03:45:00,29.1,26.8,30.16,WNW,291,0.0,2.0,91,0.00,,,0.00,LWC V2.00 B2112,2013-02-16 11:45:00,
2013-02-16 03:50:00,28.8,26.5,30.16,WNW,291,0.0,0.0,91,0.00,,,0.00,LWC V2.00 B2112,2013-02-16 11:50:00,
2013-02-16 03:55:00,28.7,26.4,30.16,WNW,291,0.0,0.0,91,0.00,,,0.00,LWC V2.00 B2112,2013-02-16 11:55:00,
2013-02-16 04:00:00,28.5,26.5,30.16,WNW,291,0.0,0.0,92,0.00,,,0.00,LWC V2.00 B2112,2013-02-16 12:00:00,
2013-02-16 04:05:00,28.4,26.1,30.16,WNW,291,0.0,0.0,91,0.00,,,0.00,LWC V2.00 B2112,2013-02-16 12:05:00,
2013-02-16 04:10:00,28.8,26.8,30.16,WNW,291,1.0,6.0,92,0.00,,,0.00,LWC V2.00 B2112,2013-02-16 12:10:00,
2013-02-16 04:15:00,29.0,26.7,30.16,WNW,291,0.0,1.0,91,0.00,,,0.00,LWC V2.00 B2112,2013-02-16 12:15:00,
2013-02-16 04:20:00,28.7,26.1,30.16,WNW,291,0.0,0.0,90,0.00,,,0.00,LWC V2.00 B2112,2013-02-16 12:20:00,
2013-02-16 04:25:00,28.7,26.4,30.16,WNW,291,0.0,0.0,91,0.00,,,0.00,LWC V2.00 B2112,2013-02-16 12:25:00,
2013-02-16 04:30:00,28.4,26.1,30.16,WNW,291,0.0,0.0,91,0.00,,,0.00,LWC V2.00 B2112,2013-02-16 12:30:00,
2013-02-16 04:35:00,28.1,25.8,30.16,WNW,291,0.0,0.0,91,0.00,,,0.00,LWC V2.00 B2112,2013-02-16 12:35:00,
2013-02-16 04:40:00,27.9,25.6,30.16,WNW,291,0.0,0.0,91,0.00,,,0.00,LWC V2.00 B2112,2013-02-16 12:40:00,
2013-02-16 04:45:00,28.1,26.1,30.15,WNW,291,0.0,0.0,92,0.00,,,0.00,LWC V2.00 B2112,2013-02-16 12:45:00,
2013-02-16 04:50:00,27.9,25.9,30.15,WNW,291,0.0,0.0,92,0.00,,,0.00,LWC V2.00 B2112,2013-02-16 12:50:00,
2013-02-16 04:55:00,27.9,25.9,30.15,WNW,291,0.0,0.0,92,0.00,,,0.00,LWC V2.00 B2112,2013-02-16 12:55:00,
2013-02-16 05:00:00,27.8,25.8,30.15,WNW,291,0.0,0.0,92,0.00,,,0.00,LWC V2.00 B2112,2013-02-16 13:00:00,
2013-02-16 05:05:00,27.5,25.5,30.15,WNW,291,0.0,0.0,92,0.00,,,0.00,LWC V2.00 B2112,2013-02-16 13:05:00,
2013-02-16 05:10:00,27.6,25.8,30.15,WNW,291,0.0,0.0,93,0.00,,,0.00,LWC V2.00 B2112,2013-02-16 13:10:00,
2013-02-16 05:15:00,27.5,25.7,30.14,WNW,291,0.0,0.0,93,0.00,,,0.00,LWC V2.00 B2112,2013-02-16 13:15:00,
2013-02-16 05:20:00,27.5,25.7,30.14,WNW,291,0.0,0.0,93,0.00,,,0.00,LWC V2.00 B2112,2013-02-16 13:20:00,
2013-02-16 05:25:00,27.2,25.5,30.14,WNW,291,0.0,0.0,93,0.00,,,0.00,LWC V2.00 B2112,2013-02-16 13:25:00,
2013-02-16 05:30:00,27.2,25.5,30.14,WNW,291,0.0,0.0,93,0.00,,,0.00,LWC V2.00 B2112,2013-02-16 13:30:00,
2013-02-16 05:35:00,27.2,25.5,30.14,WNW,291,0.0,0.0,93,0.00,,,0.00,LWC V2.00 B2112,2013-02-16 13:35:00,
2013-02-16 05:40:00,27.3,25.5,30.14,WNW,291,0.0,0.0,93,0.00,,,0.00,LWC V2.00 B2112,2013-02-16 13:40:00,
2013-02-16 05:45:00,27.5,25.7,30.13,WNW,291,0.0,0.0,93,0.00,,,0.00,LWC V2.00 B2112,2013-02-16 13:45:00,
2013-02-16 05:50:00,27.5,25.7,30.13,WNW,291,0.0,0.0,93,0.00,,,0.00,LWC V2.00 B2112,2013-02-16 13:50:00,
2013-02-16 05:55:00,27.5,25.7,30.13,WNW,291,0.0,0.0,93,0.00,,,0.00,LWC V2.00 B2112,2013-02-16 13:55:00,
2013-02-16 06:00:00,27.3,25.5,30.13,WNW,291,0.0,0.0,93,0.00,,,0.00,LWC V2.00 B2112,2013-02-16 14:00:00,
2013-02-16 06:05:00,27.3,25.5,30.13,WNW,291,0.0,0.0,93,0.00,,,0.00,LWC V2.00 B2112,2013-02-16 14:05:00,
2013-02-16 06:10:00,27.5,25.7,30.13,WNW,291,0.0,0.0,93,0.00,,,0.00,LWC V2.00 B2112,2013-02-16 14:10:00,
2013-02-16 06:15:00,27.5,25.7,30.12,WNW,291,0.0,0.0,93,0.00,,,0.00,LWC V2.00 B2112,2013-02-16 14:15:00,
2013-02-16 06:20:00,27.5,25.7,30.12,WNW,291,2.0,2.0,93,0.00,,,0.00,LWC V2.00 B2112,2013-02-16 14:20:00,
2013-02-16 06:25:00,27.5,25.5,30.12,WNW,291,1.0,1.0,92,0.00,,,0.00,LWC V2.00 B2112,2013-02-16 14:25:00,
2013-02-16 06:30:00,27.2,25.2,30.12,WNW,291,2.0,2.0,92,0.00,,,0.00,LWC V2.00 B2112,2013-02-16 14:30:00,
2013-02-16 06:35:00,27.2,25.2,30.12,WNW,291,0.0,0.0,92,0.00,,,0.00,LWC V2.00 B2112,2013-02-16 14:35:00,
2013-02-16 06:40:00,27.3,25.3,30.12,WNW,291,0.0,0.0,92,0.00,,,0.00,LWC V2.00 B2112,2013-02-16 14:40:00,
2013-02-16 06:45:00,27.3,25.3,30.11,WNW,291,0.0,2.0,92,0.00,,,0.00,LWC V2.00 B2112,2013-02-16 14:45:00,
2013-02-16 06:50:00,27.3,25.3,30.11,WNW,291,0.0,0.0,92,0.00,,,0.00,LWC V2.00 B2112,2013-02-16 14:50:00,
2013-02-16 06:55:00,27.3,25.8,30.11,WNW,291,2.0,2.0,94,0.00,,,0.00,LWC V2.00 B2112,2013-02-16 14:55:00,
2013-02-16 07:00:00,27.6,26.1,30.11,WNW,284,4.0,7.0,94,0.00,,,0.00,LWC V2.00 B2112,2013-02-16 15:00:00,
2013-02-16 07:05:00,27.6,26.1,30.11,WNW,284,2.0,2.0,94,0.00,,,0.00,LWC V2.00 B2112,2013-02-16 15:05:00,
2013-02-16 07:10:00,27.6,26.1,30.11,WNW,284,2.0,2.0,94,0.00,,,0.00,LWC V2.00 B2112,2013-02-16 15:10:00,
2013-02-16 07:15:00,27.9,25.9,30.11,WNW,284,2.0,2.0,92,0.00,,,0.00,LWC V2.00 B2112,2013-02-16 15:15:00,
2013-02-16 07:20:00,28.2,25.9,30.11,WNW,284,2.0,6.0,91,0.00,,,0.00,LWC V2.00 B2112,2013-02-16 15:20:00,
2013-02-16 07:25:00,28.1,26.1,30.11,WNW,285,4.0,6.0,92,0.00,,,0.00,LWC V2.00 B2112,2013-02-16 15:25:00,
2013-02-16 07:30:00,28.4,26.1,30.11,West,280,6.0,6.0,91,0.00,,,0.00,LWC V2.00 B2112,2013-02-16 15:30:00,
2013-02-16 07:35:00,28.7,26.1,30.11,West,281,1.0,4.0,90,0.00,,,0.00,LWC V2.00 B2112,2013-02-16 15:35:00,
2013-02-16 07:40:00,28.5,25.9,30.11,West,281,0.0,0.0,90,0.00,,,0.00,LWC V2.00 B2112,2013-02-16 15:40:00,
2013-02-16 07:45:00,28.5,25.9,30.11,West,281,0.0,0.0,90,0.00,,,0.00,LWC V2.00 B2112,2013-02-16 15:45:00,
2013-02-16 07:50:00,28.8,26.0,30.11,West,281,2.0,4.0,89,0.00,,,0.00,LWC V2.00 B2112,2013-02-16 15:50:00,
2013-02-16 07:55:00,29.3,26.5,30.11,WNW,298,6.0,7.0,89,0.00,,,0.00,LWC V2.00 B2112,2013-02-16 15:55:00,
2013-02-16 08:00:00,29.5,26.7,30.11,WNW,299,0.0,2.0,89,0.00,,,0.00,LWC V2.00 B2112,2013-02-16 16:00:00,
2013-02-16 08:05:00,29.7,26.6,30.11,WNW,298,2.0,6.0,88,0.00,,,0.00,LWC V2.00 B2112,2013-02-16 16:05:00,
2013-02-16 08:10:00,29.8,26.7,30.11,NW,323,2.0,2.0,88,0.00,,,0.00,LWC V2.00 B2112,2013-02-16 16:10:00,
2013-02-16 08:15:00,30.0,26.6,30.10,West,275,2.0,4.0,87,0.00,,,0.00,LWC V2.00 B2112,2013-02-16 16:15:00,
2013-02-16 08:20:00,30.1,26.7,30.10,WNW,291,2.0,6.0,87,0.00,,,0.00,LWC V2.00 B2112,2013-02-16 16:20:00,
2013-02-16 08:25:00,30.4,27.0,30.10,WNW,291,0.0,0.0,87,0.00,,,0.00,LWC V2.00 B2112,2013-02-16 16:25:00,
2013-02-16 08:30:00,30.6,27.2,30.10,WNW,291,0.0,0.0,87,0.00,,,0.00,LWC V2.00 B2112,2013-02-16 16:30:00,
2013-02-16 08:35:00,30.7,27.3,30.10,NW,308,4.0,4.0,87,0.00,,,0.00,LWC V2.00 B2112,2013-02-16 16:35:00,
2013-02-16 08:40:00,31.0,27.3,30.10,North,353,0.0,0.0,86,0.00,,,0.00,LWC V2.00 B2112,2013-02-16 16:40:00,
2013-02-16 08:45:00,31.2,27.2,30.09,North,353,0.0,0.0,85,0.00,,,0.00,LWC V2.00 B2112,2013-02-16 16:45:00,
2013-02-16 08:50:00,31.3,27.3,30.09,North,353,0.0,0.0,85,0.00,,,0.00,LWC V2.00 B2112,2013-02-16 16:50:00,
2013-02-16 08:55:00,31.5,27.5,30.09,North,353,0.0,0.0,85,0.00,,,0.00,LWC V2.00 B2112,2013-02-16 16:55:00,
2013-02-16 09:00:00,31.8,27.8,30.09,North,353,0.0,0.0,85,0.00,,,0.00,LWC V2.00 B2112,2013-02-16 17:00:00,
2013-02-16 09:05:00,31.9,27.6,30.09,North,353,0.0,0.0,84,0.00,,,0.00,LWC V2.00 B2112,2013-02-16 17:05:00,
2013-02-16 09:10:00,31.9,27.6,30.09,North,353,0.0,0.0,84,0.00,,,0.00,LWC V2.00 B2112,2013-02-16 17:10:00,
2013-02-16 09:15:00,31.9,27.6,30.08,North,353,0.0,0.0,84,0.00,,,0.00,LWC V2.00 B2112,2013-02-16 17:15:00,
2013-02-16 09:20:00,31.9,27.6,30.08,North,353,0.0,0.0,84,0.00,,,0.00,LWC V2.00 B2112,2013-02-16 17:20:00,
2013-02-16 09:25:00,31.9,27.6,30.08,North,353,0.0,0.0,84,0.00,,,0.00,LWC V2.00 B2112,2013-02-16 17:25:00,
2013-02-16 09:30:00,32.1,27.8,30.08,North,353,0.0,0.0,84,0.00,,,0.00,LWC V2.00 B2112,2013-02-16 17:30:00,
2013-02-16 09:35:00,32.4,28.1,30.08,North,353,0.0,0.0,84,0.00,,,0.00,LWC V2.00 B2112,2013-02-16 17:35:00,
2013-02-16 09:40:00,32.5,27.9,30.08,North,353,0.0,0.0,83,0.00,,,0.00,LWC V2.00 B2112,2013-02-16 17:40:00,
2013-02-16 09:45:00,32.7,28.1,30.08,North,353,0.0,0.0,83,0.00,,,0.00,LWC V2.00 B2112,2013-02-16 17:45:00,
2013-02-16 09:50:00,33.1,28.5,30.08,North,353,0.0,0.0,83,0.00,,,0.00,LWC V2.00 B2112,2013-02-16 17:50:00,
2013-02-16 09:55:00,33.1,27.9,30.08,North,353,0.0,0.0,81,0.00,,,0.00,LWC V2.00 B2112,2013-02-16 17:55:00,
2013-02-16 10:00:00,33.1,28.2,30.07,North,0,1.0,1.0,82,0.00,,,0.00,LWC V2.00 B2112,2013-02-16 18:00:00,
2013-02-16 10:05:00,32.9,28.0,30.07,NE,40,0.0,0.0,82,0.00,,,0.00,LWC V2.00 B2112,2013-02-16 18:05:00,
2013-02-16 10:10:00,33.1,28.2,30.07,NE,40,0.0,0.0,82,0.00,,,0.00,LWC V2.00 B2112,2013-02-16 18:10:00,
2013-02-16 10:15:00,33.4,28.5,30.06,NE,40,0.0,0.0,82,0.00,,,0.00,LWC V2.00 B2112,2013-02-16 18:15:00,
2013-02-16 10:20:00,33.5,28.3,30.06,NE,40,0.0,0.0,81,0.00,,,0.00,LWC V2.00 B2112,2013-02-16 18:20:00,
2013-02-16 10:25:00,33.5,28.3,30.06,NE,40,0.0,0.0,81,0.00,,,0.00,LWC V2.00 B2112,2013-02-16 18:25:00,
2013-02-16 10:30:00,33.5,28.3,30.06,NE,40,0.0,0.0,81,0.00,,,0.00,LWC V2.00 B2112,2013-02-16 18:30:00,
2013-02-16 10:35:00,33.5,28.3,30.06,NE,40,0.0,0.0,81,0.00,,,0.00,LWC V2.00 B2112,2013-02-16 18:35:00,
2013-02-16 10:40:00,33.7,28.5,30.06,NE,40,0.0,0.0,81,0.00,,,0.00,LWC V2.00 B2112,2013-02-16 18:40:00,
2013-02-16 10:45:00,34.0,28.5,30.04,NE,40,0.0,0.0,80,0.00,,,0.00,LWC V2.00 B2112,2013-02-16 18:45:00,
2013-02-16 10:50:00,34.0,28.5,30.04,NE,40,1.0,4.0,80,0.00,,,0.00,LWC V2.00 B2112,2013-02-16 18:50:00,
2013-02-16 10:55:00,34.1,28.6,30.04,NE,40,0.0,0.0,80,0.00,,,0.00,LWC V2.00 B2112,2013-02-16 18:55:00,
2013-02-16 11:00:00,34.1,28.6,30.04,NE,40,0.0,2.0,80,0.00,,,0.00,LWC V2.00 B2112,2013-02-16 19:00:00,
2013-02-16 11:05:00,34.4,28.6,30.04,NE,40,0.0,1.0,79,0.00,,,0.00,LWC V2.00 B2112,2013-02-16 19:05:00,
2013-02-16 11:10:00,34.9,29.1,30.04,NE,40,0.0,0.0,79,0.00,,,0.00,LWC V2.00 B2112,2013-02-16 19:10:00,
2013-02-16 11:15:00,35.5,29.6,30.03,NE,40,0.0,0.0,79,0.00,,,0.00,LWC V2.00 B2112,2013-02-16 19:15:00,
2013-02-16 11:20:00,36.3,29.5,30.03,NE,40,0.0,0.0,76,0.00,,,0.00,LWC V2.00 B2112,2013-02-16 19:20:00,
2013-02-16 11:25:00,36.8,30.0,30.03,NE,40,0.0,0.0,76,0.00,,,0.00,LWC V2.00 B2112,2013-02-16 19:25:00,
2013-02-16 11:30:00,37.2,29.7,30.02,NE,42,2.0,4.0,74,0.00,,,0.00,LWC V2.00 B2112,2013-02-16 19:30:00,
2013-02-16 11:35:00,37.2,29.7,30.02,NE,42,2.0,2.0,74,0.00,,,0.00,LWC V2.00 B2112,2013-02-16 19:35:00,
2013-02-16 11:40:00,37.6,29.7,30.02,NE,42,0.0,1.0,73,0.00,,,0.00,LWC V2.00 B2112,2013-02-16 19:40:00,
2013-02-16 11:45:00,38.0,29.8,30.00,NE,42,0.0,0.0,72,0.00,,,0.00,LWC V2.00 B2112,2013-02-16 19:45:00,
2013-02-16 11:50:00,38.9,30.7,30.00,NE,42,0.0,0.0,72,0.00,,,0.00,LWC V2.00 B2112,2013-02-16 19:50:00,
2013-02-16 11:55:00,40.1,30.4,30.00,NE,42,0.0,0.0,68,0.00,,,0.00,LWC V2.00 B2112,2013-02-16 19:55:00,
2013-02-16 12:00:00,40.3,31.0,29.99,NE,42,0.0,0.0,69,0.00,,,0.00,LWC V2.00 B2112,2013-02-16 20:00:00,
2013-02-16 12:05:00,40.5,30.4,29.99,SE,143,0.0,7.0,67,0.00,,,0.00,LWC V2.00 B2112,2013-02-16 20:05:00,
2013-02-16 12:10:00,40.8,31.1,29.99,SSE,152,0.0,1.0,68,0.00,,,0.00,LWC V2.00 B2112,2013-02-16 20:10:00,
2013-02-16 12:15:00,41.2,31.1,29.99,SSE,152,0.0,0.0,67,0.00,,,0.00,LWC V2.00 B2112,2013-02-16 20:15:00,
2013-02-16 12:20:00,41.5,31.4,29.99,SSE,152,0.0,0.0,67,0.00,,,0.00,LWC V2.00 B2112,2013-02-16 20:20:00,
2013-02-16 12:25:00,42.1,31.6,29.99,SSE,152,0.0,0.0,66,0.00,,,0.00,LWC V2.00 B2112,2013-02-16 20:25:00,
2013-02-16 12:30:00,42.9,31.2,29.98,SSE,152,0.0,0.0,63,0.00,,,0.00,LWC V2.00 B2112,2013-02-16 20:30:00,
2013-02-16 12:35:00,43.6,31.8,29.98,SSE,152,0.0,0.0,63,0.00,,,0.00,LWC V2.00 B2112,2013-02-16 20:35:00,
2013-02-16 12:40:00,43.6,32.6,29.98,SSE,152,0.0,0.0,65,0.00,,,0.00,LWC V2.00 B2112,2013-02-16 20:40:00,
2013-02-16 12:45:00,44.2,32.0,29.97,SSE,154,0.0,0.0,62,0.00,,,0.00,LWC V2.00 B2112,2013-02-16 20:45:00,
2013-02-16 12:50:00,44.2,32.4,29.97,SSE,157,0.0,2.0,63,0.00,,,0.00,LWC V2.00 B2112,2013-02-16 20:50:00,
2013-02-16 12:55:00,43.9,32.1,29.97,SE,145,1.0,6.0,63,0.00,,,0.00,LWC V2.00 B2112,2013-02-16 20:55:00,
2013-02-16 13:00:00,43.2,32.6,29.96,SE,141,0.0,4.0,66,0.00,,,0.00,LWC V2.00 B2112,2013-02-16 21:00:00,
2013-02-16 13:05:00,43.3,32.7,29.96,East,89,1.0,8.0,66,0.00,,,0.00,LWC V2.00 B2112,2013-02-16 21:05:00,
2013-02-16 13:10:00,43.5,32.5,29.96,ESE,110,0.0,4.0,65,0.00,,,0.00,LWC V2.00 B2112,2013-02-16 21:10:00,
2013-02-16 13:15:00,44.3,32.9,29.94,ESE,110,0.0,0.0,64,0.00,,,0.00,LWC V2.00 B2112,2013-02-16 21:15:00,
2013-02-16 13:20:00,44.5,33.5,29.94,WSW,239,0.0,0.0,65,0.00,,,0.00,LWC V2.00 B2112,2013-02-16 21:20:00,
2013-02-16 13:25:00,45.4,33.2,29.94,WSW,239,0.0,0.0,62,0.00,,,0.00,LWC V2.00 B2112,2013-02-16 21:25:00,
2013-02-16 13:30:00,46.2,33.9,29.93,WSW,239,0.0,0.0,62,0.00,,,0.00,LWC V2.00 B2112,2013-02-16 21:30:00,
2013-02-16 13:35:00,47.3,34.9,29.93,WSW,239,0.0,0.0,62,0.00,,,0.00,LWC V2.00 B2112,2013-02-16 21:35:00,
2013-02-16 13:40:00,48.6,34.9,29.93,WSW,239,0.0,0.0,59,0.00,,,0.00,LWC V2.00 B2112,2013-02-16 21:40:00,
2013-02-16 13:45:00,48.8,35.1,29.92,WSW,240,1.0,2.0,59,0.00,,,0.00,LWC V2.00 B2112,2013-02-16 21:45:00,
2013-02-16 13:50:00,48.6,34.5,29.92,WSW,240,0.0,0.0,58,0.00,,,0.00,LWC V2.00 B2112,2013-02-16 21:50:00,
2013-02-16 13:55:00,48.3,35.1,29.92,West,281,0.0,2.0,60,0.00,,,0.00,LWC V2.00 B2112,2013-02-16 21:55:00,
2013-02-16 14:00:00,48.3,33.8,29.92,NW,304,20.0,20.0,57,0.00,,,0.00,LWC V2.00 B2112,2013-02-16 22:00:00,
2013-02-16 14:05:00,50.1,29.0,29.92,NNW,337,7.0,11.0,44,0.00,,,0.00,LWC V2.00 B2112,2013-02-16 22:05:00,
2013-02-16 14:10:00,50.4,27.6,29.92,North,353,9.0,10.0,41,0.00,,,0.00,LWC V2.00 B2112,2013-02-16 22:10:00,
2013-02-16 14:15:00,50.5,28.3,29.92,West,264,7.0,8.0,42,0.00,,,0.00,LWC V2.00 B2112,2013-02-16 22:15:00,
2013-02-16 14:20:00,50.8,28.0,29.92,NW,316,2.0,8.0,41,0.00,,,0.00,LWC V2.00 B2112,2013-02-16 22:20:00,
2013-02-16 14:25:00,51.3,27.2,29.92,NNE,21,0.0,8.0,39,0.00,,,0.00,LWC V2.00 B2112,2013-02-16 22:25:00,
2013-02-16 14:30:00,50.4,31.5,29.91,West,268,0.0,0.0,48,0.00,,,0.00,LWC V2.00 B2112,2013-02-16 22:30:00,
2013-02-16 14:35:00,50.1,26.7,29.91,SSW,202,0.0,2.0,40,0.00,,,0.00,LWC V2.00 B2112,2013-02-16 22:35:00,
2013-02-16 14:40:00,50.5,28.3,29.91,NE,44,4.0,7.0,42,0.00,,,0.00,LWC V2.00 B2112,2013-02-16 22:40:00,
2013-02-16 14:45:00,49.9,31.0,29.91,West,263,0.0,0.0,48,0.00,,,0.00,LWC V2.00 B2112,2013-02-16 22:45:00,
2013-02-16 14:50:00,50.1,26.1,29.91,WNW,299,6.0,11.0,39,0.00,,,0.00,LWC V2.00 B2112,2013-02-16 22:50:00,
2013-02-16 14:55:00,50.8,26.1,29.91,WNW,284,2.0,7.0,38,0.00,,,0.00,LWC V2.00 B2112,2013-02-16 22:55:00,
2013-02-16 15:00:00,51.1,25.7,29.91,NW,319,7.0,10.0,37,0.00,,,0.00,LWC V2.00 B2112,2013-02-16 23:00:00,
2013-02-16 15:05:00,51.3,23.9,29.91,NNW,337,10.0,14.0,34,0.00,,,0.00,LWC V2.00 B2112,2013-02-16 23:05:00,
2013-02-16 15:10:00,50.8,23.5,29.91,NW,316,7.0,11.0,34,0.00,,,0.00,LWC V2.00 B2112,2013-02-16 23:10:00,
2013-02-16 15:15:00,51.3,22.5,29.91,NNE,24,9.0,9.0,32,0.00,,,0.00,LWC V2.00 B2112,2013-02-16 23:15:00,
2013-02-16 15:20:00,51.4,26.7,29.91,WNW,288,0.0,0.0,38,0.00,,,0.00,LWC V2.00 B2112,2013-02-16 23:20:00,
2013-02-16 15:25:00,50.8,24.1,29.91,North,4,6.0,6.0,35,0.00,,,0.00,LWC V2.00 B2112,2013-02-16 23:25:00,
2013-02-16 15:30:00,50.4,25.1,29.91,West,275,1.0,6.0,37,0.00,,,0.00,LWC V2.00 B2112,2013-02-16 23:30:00,
2013-02-16 15:35:00,49.8,23.9,29.91,NW,309,0.0,2.0,36,0.00,,,0.00,LWC V2.00 B2112,2013-02-16 23:35:00,
2013-02-16 15:40:00,49.1,24.0,29.91,West,271,2.0,6.0,37,0.00,,,0.00,LWC V2.00 B2112,2013-02-16 23:40:00,
2013-02-16 15:45:00,48.5,26.5,29.92,West,271,1.0,2.0,42,0.00,,,0.00,LWC V2.00 B2112,2013-02-16 23:45:00,
2013-02-16 15:50:00,48.6,21.5,29.92,West,272,9.0,11.0,34,0.00,,,0.00,LWC V2.00 B2112,2013-02-16 23:50:00,
2013-02-16 15:55:00,48.9,23.1,29.92,WNW,295,10.0,15.0,36,0.00,,,0.00,LWC V2.00 B2112,2013-02-16 23:55:00,
2013-02-16 16:00:00,49.2,25.9,29.92,NW,316,10.0,16.0,40,0.00,,,0.00,LWC V2.00 B2112,2013-02-17 00:00:00,
2013-02-16 16:05:00,48.9,24.4,29.92,NNW,330,9.0,9.0,38,0.00,,,0.00,LWC V2.00 B2112,2013-02-17 00:05:00,
2013-02-16 16:10:00,48.5,25.3,29.92,NW,316,8.0,11.0,40,0.00,,,0.00,LWC V2.00 B2112,2013-02-17 00:10:00,
2013-02-16 16:15:00,48.5,26.5,29.94,NW,323,11.0,14.0,42,0.00,,,0.00,LWC V2.00 B2112,2013-02-17 00:15:00,
2013-02-16 16:20:00,48.2,26.8,29.94,NNW,332,10.0,10.0,43,0.00,,,0.00,LWC V2.00 B2112,2013-02-17 00:20:00,
2013-02-16 16:25:00,47.6,27.9,29.94,NW,308,9.0,15.0,46,0.00,,,0.00,LWC V2.00 B2112,2013-02-17 00:25:00,
2013-02-16 16:30:00,47.0,27.3,29.95,NW,313,8.0,13.0,46,0.00,,,0.00,LWC V2.00 B2112,2013-02-17 00:30:00,
2013-02-16 16:35:00,46.7,27.6,29.95,WSW,251,6.0,14.0,47,0.00,,,0.00,LWC V2.00 B2112,2013-02-17 00:35:00,
2013-02-16 16:40:00,46.4,29.3,29.95,WNW,291,11.0,15.0,51,0.00,,,0.00,LWC V2.00 B2112,2013-02-17 00:40:00,
2013-02-16 16:45:00,46.0,30.3,29.95,WSW,253,10.0,13.0,54,0.00,,,0.00,LWC V2.00 B2112,2013-02-17 00:45:00,
2013-02-16 16:50:00,45.4,30.6,29.95,NW,305,16.0,20.0,56,0.00,,,0.00,LWC V2.00 B2112,2013-02-17 00:50:00,
2013-02-16 16:55:00,44.8,30.9,29.95,NW,320,13.0,15.0,58,0.00,,,0.00,LWC V2.00 B2112,2013-02-17 00:55:00,
2013-02-16 17:00:00,44.3,30.9,29.95,NNW,342,10.0,17.0,59,0.00,,,0.00,LWC V2.00 B2112,2013-02-17 01:00:00,
2013-02-16 17:05:00,44.2,30.8,29.95,NNW,332,15.0,25.0,59,0.00,,,0.00,LWC V2.00 B2112,2013-02-17 01:05:00,
2013-02-16 17:10:00,44.1,31.5,29.95,WSW,250,6.0,6.0,61,0.00,,,0.00,LWC V2.00 B2112,2013-02-17 01:10:00,
2013-02-16 17:15:00,43.9,30.9,29.95,NW,318,0.0,0.0,60,0.00,,,0.00,LWC V2.00 B2112,2013-02-17 01:15:00,
2013-02-16 17:20:00,43.6,30.6,29.95,North,3,14.0,15.0,60,0.00,,,0.00,LWC V2.00 B2112,2013-02-17 01:20:00,
2013-02-16 17:25:00,44.5,29.8,29.95,WNW,299,14.0,24.0,56,0.00,,,0.00,LWC V2.00 B2112,2013-02-17 01:25:00,
2013-02-16 17:30:00,44.6,29.0,29.95,North,353,15.0,18.0,54,0.00,,,0.00,LWC V2.00 B2112,2013-02-17 01:30:00,
2013-02-16 17:35:00,44.8,29.2,29.95,WNW,302,11.0,17.0,54,0.00,,,0.00,LWC V2.00 B2112,2013-02-17 01:35:00,
2013-02-16 17:40:00,44.5,29.4,29.95,WSW,240,4.0,8.0,55,0.00,,,0.00,LWC V2.00 B2112,2013-02-17 01:40:00,
2013-02-16 17:45:00,44.3,29.6,29.95,NW,312,0.0,2.0,56,0.00,,,0.00,LWC V2.00 B2112,2013-02-17 01:45:00,
2013-02-16 17:50:00,43.9,30.1,29.95,NW,311,0.0,1.0,58,0.00,,,0.00,LWC V2.00 B2112,2013-02-17 01:50:00,
2013-02-16 17:55:00,43.2,30.3,29.95,NW,311,0.0,0.0,60,0.00,,,0.00,LWC V2.00 B2112,2013-02-17 01:55:00,
2013-02-16 18:00:00,41.9,30.6,29.94,NW,306,0.0,2.0,64,0.00,,,0.00,LWC V2.00 B2112,2013-02-17 02:00:00,
2013-02-16 18:05:00,41.5,30.6,29.94,West,275,0.0,2.0,65,0.00,,,0.00,LWC V2.00 B2112,2013-02-17 02:05:00,
2013-02-16 18:10:00,40.9,30.4,29.94,WNW,292,0.0,4.0,66,0.00,,,0.00,LWC V2.00 B2112,2013-02-17 02:10:00,
2013-02-16 18:15:00,40.8,30.0,29.94,NW,315,1.0,6.0,65,0.00,,,0.00,LWC V2.00 B2112,2013-02-17 02:15:00,
2013-02-16 18:20:00,40.3,30.6,29.94,SSW,195,0.0,6.0,68,0.00,,,0.00,LWC V2.00 B2112,2013-02-17 02:20:00,
2013-02-16 18:25:00,40.3,30.2,29.94,NW,304,0.0,0.0,67,0.00,,,0.00,LWC V2.00 B2112,2013-02-17 02:25:00,
2013-02-16 18:30:00,39.9,29.8,29.94,NW,304,0.0,0.0,67,0.00,,,0.00,LWC V2.00 B2112,2013-02-17 02:30:00,
2013-02-16 18:35:00,40.8,29.2,29.94,SE,145,0.0,8.0,63,0.00,,,0.00,LWC V2.00 B2112,2013-02-17 02:35:00,
2013-02-16 18:40:00,40.6,29.4,29.94,WNW,285,2.0,2.0,64,0.00,,,0.00,LWC V2.00 B2112,2013-02-17 02:40:00,
2013-02-16 18:45:00,41.1,30.2,29.94,NE,49,0.0,1.0,65,0.00,,,0.00,LWC V2.00 B2112,2013-02-17 02:45:00,
2013-02-16 18:50:00,41.5,30.2,29.94,ENE,75,7.0,7.0,64,0.00,,,0.00,LWC V2.00 B2112,2013-02-17 02:50:00,
2013-02-16 18:55:00,41.8,28.9,29.94,WSW,250,0.0,9.0,60,0.00,,,0.00,LWC V2.00 B2112,2013-02-17 02:55:00,
2013-02-16 19:00:00,42.6,28.4,29.95,ENE,68,1.0,11.0,57,0.00,,,0.00,LWC V2.00 B2112,2013-02-17 03:00:00,
2013-02-16 19:05:00,43.1,28.0,29.95,NE,56,8.0,11.0,55,0.00,,,0.00,LWC V2.00 B2112,2013-02-17 03:05:00,
2013-02-16 19:10:00,43.8,27.8,29.95,NE,54,7.0,13.0,53,0.00,,,0.00,LWC V2.00 B2112,2013-02-17 03:10:00,
2013-02-16 19:15:00,43.9,27.9,29.95,NNW,347,4.0,7.0,53,0.00,,,0.00,LWC V2.00 B2112,2013-02-17 03:15:00,
2013-02-16 19:20:00,43.6,29.4,29.95,ENE,66,1.0,6.0,57,0.00,,,0.00,LWC V2.00 B2112,2013-02-17 03:20:00,
2013-02-16 19:25:00,42.1,30.8,29.95,WSW,244,2.0,6.0,64,0.00,,,0.00,LWC V2.00 B2112,2013-02-17 03:25:00,
2013-02-16 19:30:00,41.2,28.8,29.95,WSW,244,0.0,4.0,61,0.00,,,0.00,LWC V2.00 B2112,2013-02-17 03:30:00,
2013-02-16 19:35:00,40.3,29.1,29.95,NNW,343,1.0,6.0,64,0.00,,,0.00,LWC V2.00 B2112,2013-02-17 03:35:00,
2013-02-16 19:40:00,39.8,29.8,29.95,SW,234,0.0,2.0,67,0.00,,,0.00,LWC V2.00 B2112,2013-02-17 03:40:00,
2013-02-16 19:45:00,38.9,28.5,29.95,WSW,240,0.0,4.0,66,0.00,,,0.00,LWC V2.00 B2112,2013-02-17 03:45:00,
2013-02-16 19:50:00,38.6,28.2,29.95,ENE,64,6.0,6.0,66,0.00,,,0.00,LWC V2.00 B2112,2013-02-17 03:50:00,
2013-02-16 19:55:00,39.3,28.2,29.95,West,260,0.0,0.0,64,0.00,,,0.00,LWC V2.00 B2112,2013-02-17 03:55:00,
2013-02-16 20:00:00,39.3,28.9,29.95,SE,138,0.0,1.0,66,0.00,,,0.00,LWC V2.00 B2112,2013-02-17 04:00:00,
2013-02-16 20:05:00,39.1,27.6,29.95,South,184,2.0,2.0,63,0.00,,,0.00,LWC V2.00 B2112,2013-02-17 04:05:00,
2013-02-16 20:10:00,38.3,28.3,29.95,WSW,241,0.0,0.0,67,0.00,,,0.00,LWC V2.00 B2112,2013-02-17 04:10:00,
2013-02-16 20:15:00,38.0,28.4,29.95,WSW,241,0.0,2.0,68,0.00,,,0.00,LWC V2.00 B2112,2013-02-17 04:15:00,
2013-02-16 20:20:00,38.0,27.7,29.95,West,263,0.0,1.0,66,0.00,,,0.00,LWC V2.00 B2112,2013-02-17 04:20:00,
2013-02-16 20:25:00,39.1,27.2,29.95,SE,130,0.0,2.0,62,0.00,,,0.00,LWC V2.00 B2112,2013-02-17 04:25:00,
2013-02-16 20:30:00,38.9,28.2,29.95,SW,219,0.0,0.0,65,0.00,,,0.00,LWC V2.00 B2112,2013-02-17 04:30:00,
2013-02-16 20:35:00,38.8,27.7,29.95,SW,219,0.0,0.0,64,0.00,,,0.00,LWC V2.00 B2112,2013-02-17 04:35:00,
2013-02-16 20:40:00,39.1,28.0,29.95,SW,216,0.0,0.0,64,0.00,,,0.00,LWC V2.00 B2112,2013-02-17 04:40:00,
2013-02-16 20:45:00,38.6,27.5,29.95,SW,216,0.0,0.0,64,0.00,,,0.00,LWC V2.00 B2112,2013-02-17 04:45:00,
2013-02-16 20:50:00,38.5,26.6,29.95,SW,216,0.0,0.0,62,0.00,,,0.00,LWC V2.00 B2112,2013-02-17 04:50:00,
2013-02-16 20:55:00,38.2,27.1,29.95,SW,216,0.0,2.0,64,0.00,,,0.00,LWC V2.00 B2112,2013-02-17 04:55:00,
2013-02-16 21:00:00,38.8,26.5,29.95,SSW,206,2.0,4.0,61,0.00,,,0.00,LWC V2.00 B2112,2013-02-17 05:00:00,
2013-02-16 21:05:00,39.2,26.9,29.95,NW,315,0.0,0.0,61,0.00,,,0.00,LWC V2.00 B2112,2013-02-17 05:05:00,
2013-02-16 21:10:00,39.2,26.5,29.95,NNW,328,0.0,1.0,60,0.00,,,0.00,LWC V2.00 B2112,2013-02-17 05:10:00,
2013-02-16 21:15:00,39.3,27.0,29.95,NNW,328,0.0,0.0,61,0.00,,,0.00,LWC V2.00 B2112,2013-02-17 05:15:00,
2013-02-16 21:20:00,39.8,25.8,29.95,NW,308,0.0,6.0,57,0.00,,,0.00,LWC V2.00 B2112,2013-02-17 05:20:00,
2013-02-16 21:25:00,40.6,27.4,29.95,WNW,291,9.0,10.0,59,0.00,,,0.00,LWC V2.00 B2112,2013-02-17 05:25:00,
2013-02-16 21:30:00,41.5,26.6,29.95,West,277,1.0,6.0,55,0.00,,,0.00,LWC V2.00 B2112,2013-02-17 05:30:00,
2013-02-16 21:35:00,40.9,27.3,29.95,West,268,0.0,1.0,58,0.00,,,0.00,LWC V2.00 B2112,2013-02-17 05:35:00,
2013-02-16 21:40:00,40.6,27.0,29.95,West,268,0.0,0.0,58,0.00,,,0.00,LWC V2.00 B2112,2013-02-17 05:40:00,
2013-02-16 21:45:00,40.2,27.0,29.96,West,268,0.0,0.0,59,0.00,,,0.00,LWC V2.00 B2112,2013-02-17 05:45:00,
2013-02-16 21:50:00,40.1,26.9,29.96,South,182,1.0,6.0,59,0.00,,,0.00,LWC V2.00 B2112,2013-02-17 05:50:00,
2013-02-16 21:55:00,39.9,26.8,29.96,West,267,0.0,0.0,59,0.00,,,0.00,LWC V2.00 B2112,2013-02-17 05:55:00,
2013-02-16 22:00:00,39.9,26.3,29.96,West,265,0.0,0.0,58,0.00,,,0.00,LWC V2.00 B2112,2013-02-17 06:00:00,
2013-02-16 22:05:00,39.1,27.2,29.96,West,265,0.0,0.0,62,0.00,,,0.00,LWC V2.00 B2112,2013-02-17 06:05:00,
2013-02-16 22:10:00,38.5,26.6,29.96,West,265,0.0,0.0,62,0.00,,,0.00,LWC V2.00 B2112,2013-02-17 06:10:00,
2013-02-16 22:15:00,37.5,26.4,29.97,WSW,251,4.0,6.0,64,0.00,,,0.00,LWC V2.00 B2112,2013-02-17 06:15:00,
2013-02-16 22:20:00,37.0,26.7,29.97,NE,41,4.0,6.0,66,0.00,,,0.00,LWC V2.00 B2112,2013-02-17 06:20:00,
2013-02-16 22:25:00,37.5,27.2,29.97,SSE,152,1.0,4.0,66,0.00,,,0.00,LWC V2.00 B2112,2013-02-17 06:25:00,
2013-02-16 22:30:00,37.3,26.6,29.97,ENE,59,4.0,4.0,65,0.00,,,0.00,LWC V2.00 B2112,2013-02-17 06:30:00,
2013-02-16 22:35:00,37.6,26.5,29.97,SSW,195,0.0,1.0,64,0.00,,,0.00,LWC V2.00 B2112,2013-02-17 06:35:00,
2013-02-16 22:40:00,37.2,26.5,29.97,SSW,213,2.0,4.0,65,0.00,,,0.00,LWC V2.00 B2112,2013-02-17 06:40:00,
2013-02-16 22:45:00,36.6,26.7,29.97,SSW,212,1.0,2.0,67,0.00,,,0.00,LWC V2.00 B2112,2013-02-17 06:45:00,
2013-02-16 22:50:00,36.3,27.1,29.97,SE,136,0.0,2.0,69,0.00,,,0.00,LWC V2.00 B2112,2013-02-17 06:50:00,
2013-02-16 22:55:00,35.9,27.4,29.97,SW,224,0.0,2.0,71,0.00,,,0.00,LWC V2.00 B2112,2013-02-17 06:55:00,
2013-02-16 23:00:00,35.5,27.0,29.97,WNW,282,0.0,4.0,71,0.00,,,0.00,LWC V2.00 B2112,2013-02-17 07:00:00,
2013-02-16 23:05:00,35.6,26.5,29.97,WNW,282,0.0,0.0,69,0.00,,,0.00,LWC V2.00 B2112,2013-02-17 07:05:00,
2013-02-16 23:10:00,35.3,26.5,29.97,WNW,282,0.0,0.0,70,0.00,,,0.00,LWC V2.00 B2112,2013-02-17 07:10:00,
2013-02-16 23:15:00,34.9,26.1,29.97,WNW,282,1.0,1.0,70,0.00,,,0.00,LWC V2.00 B2112,2013-02-17 07:15:00,
2013-02-16 23:20:00,34.6,26.5,29.97,WNW,282,0.0,0.0,72,0.00,,,0.00,LWC V2.00 B2112,2013-02-17 07:20:00,
2013-02-16 23:25:00,34.3,26.2,29.97,WNW,282,1.0,1.0,72,0.00,,,0.00,LWC V2.00 B2112,2013-02-17 07:25:00,
2013-02-16 23:30:00,33.8,26.4,29.97,WNW,282,0.0,0.0,74,0.00,,,0.00,LWC V2.00 B2112,2013-02-17 07:30:00,
2013-02-16 23:35:00,34.1,26.0,29.97,WNW,282,0.0,4.0,72,0.00,,,0.00,LWC V2.00 B2112,2013-02-17 07:35:00,
2013-02-16 23:40:00,34.0,26.3,29.97,NW,318,0.0,6.0,73,0.00,,,0.00,LWC V2.00 B2112,2013-02-17 07:40:00,
2013-02-16 23:45:00,33.7,26.3,29.97,NW,318,0.0,1.0,74,0.00,,,0.00,LWC V2.00 B2112,2013-02-17 07:45:00,
2013-02-16 23:50:00,33.5,25.8,29.97,NW,318,2.0,4.0,73,0.00,,,0.00,LWC V2.00 B2112,2013-02-17 07:50:00,
2013-02-16 23:55:00,33.7,26.3,29.97,NW,318,0.0,2.0,74,0.00,,,0.00,LWC V2.00 B2112,2013-02-17 07:55:00,